Time;durP1;ratioP1;P1;durP2;ratioP2;P2;SDS_P1;SDS_P2;PMS_P1;PMS_P2;Temp;Humidity;BMP_temperature;BMP_pressure;BME280_temperature;BME280_humidity;BME280_pressure;Samples;Min_cycle;Max_cycle;Signal;HPM_P1;HPM_P2
2022/07/21 00:02:41;;;;;;;7.45;4.37;;;;;;;14.64;100.00;99675.73;1726406;83;21208;-80
2022/07/21 00:05:48;;;;;;;10.32;4.28;;;;;;;14.59;100.00;99682.42;1726254;82;21766;-79
2022/07/21 00:08:52;;;;;;;7.08;4.22;;;;;;;14.53;100.00;99684.95;1726169;83;21184;-80
2022/07/21 00:11:58;;;;;;;6.72;3.70;;;;;;;14.48;100.00;99690.27;1724943;83;21188;-80
2022/07/21 00:15:05;;;;;;;5.45;3.55;;;;;;;14.44;100.00;99683.47;1725871;82;21207;-80
2022/07/21 00:18:10;;;;;;;11.75;4.45;;;;;;;14.41;100.00;99680.33;1726109;83;21173;-81
2022/07/21 00:21:16;;;;;;;9.40;4.92;;;;;;;14.36;100.00;99682.36;1724845;82;21768;-79
2022/07/21 00:24:21;;;;;;;13.22;4.55;;;;;;;14.31;100.00;99682.16;1726140;83;21176;-80
2022/07/21 00:27:28;;;;;;;8.63;4.20;;;;;;;14.24;100.00;99679.94;1726129;83;21181;-80
2022/07/21 00:30:33;;;;;;;7.70;4.17;;;;;;;14.17;100.00;99675.00;1725581;82;21259;-80
2022/07/21 00:33:39;;;;;;;9.90;5.20;;;;;;;14.11;100.00;99670.34;1725504;82;21792;-80
2022/07/21 00:36:39;;;;;;;9.13;4.72;;;;;;;14.03;100.00;99675.03;1725060;82;21192;-80
2022/07/21 00:39:44;;;;;;;8.30;4.80;;;;;;;13.94;100.00;99668.06;1726061;82;21247;-80
2022/07/21 00:42:50;;;;;;;18.70;5.90;;;;;;;13.85;100.00;99667.13;1725555;83;21212;-80
2022/07/21 00:45:55;;;;;;;8.38;5.33;;;;;;;13.74;100.00;99663.13;1726237;82;21239;-80
2022/07/21 00:49:00;;;;;;;12.80;4.97;;;;;;;13.65;100.00;99661.65;1726153;83;21610;-80
2022/07/21 00:52:06;;;;;;;11.05;5.30;;;;;;;13.57;100.00;99665.97;1726094;83;21816;-80
2022/07/21 00:55:14;;;;;;;9.60;5.45;;;;;;;13.51;100.00;99664.92;1725829;82;21220;-80
2022/07/21 00:58:20;;;;;;;11.95;5.60;;;;;;;13.45;100.00;99662.47;1726102;83;21370;-80
2022/07/21 01:01:26;;;;;;;11.63;5.55;;;;;;;13.41;100.00;99663.09;1726238;82;21212;-79
2022/07/21 01:04:30;;;;;;;12.63;5.20;;;;;;;13.37;100.00;99665.44;1725058;82;21212;-80
2022/07/21 01:07:38;;;;;;;10.60;5.53;;;;;;;13.33;100.00;99664.17;1725278;83;21164;-79
2022/07/21 01:10:45;;;;;;;7.12;5.25;;;;;;;13.30;100.00;99658.55;1724781;82;21346;-80
2022/07/21 01:13:51;;;;;;;7.85;5.15;;;;;;;13.26;100.00;99660.02;1705997;83;21255;-79
2022/07/21 01:17:00;;;;;;;11.33;5.75;;;;;;;13.22;100.00;99661.52;1726194;83;21173;-80
2022/07/21 01:20:01;;;;;;;8.50;5.78;;;;;;;13.20;100.00;99664.95;1726082;82;21772;-80
2022/07/21 01:23:07;;;;;;;9.90;6.03;;;;;;;13.17;100.00;99665.89;1725810;83;21188;-80
2022/07/21 01:26:12;;;;;;;11.33;5.50;;;;;;;13.15;100.00;99670.76;1725139;82;21800;-79
2022/07/21 01:29:18;;;;;;;11.93;6.03;;;;;;;13.14;100.00;99662.21;1726108;83;21176;-79
2022/07/21 01:32:24;;;;;;;9.45;5.45;;;;;;;13.12;100.00;99666.52;1726135;83;21181;-80
2022/07/21 01:35:29;;;;;;;11.60;6.35;;;;;;;13.10;100.00;99660.93;1725571;82;21717;-79
2022/07/21 01:42:00;;;;;;;11.40;6.20;;;;;;;13.05;100.00;99659.66;1726094;83;21180;-80
2022/07/21 01:45:05;;;;;;;17.00;6.05;;;;;;;13.02;100.00;99666.92;1724683;82;21219;-79
2022/07/21 01:48:12;;;;;;;10.03;5.40;;;;;;;12.98;100.00;99675.25;1726095;83;21162;-80
2022/07/21 01:51:19;;;;;;;12.55;5.28;;;;;;;12.95;100.00;99679.80;1724721;82;21200;-80
2022/07/21 01:54:25;;;;;;;13.65;6.20;;;;;;;12.92;100.00;99677.98;1725210;82;21231;-80
2022/07/21 01:57:31;;;;;;;9.45;5.92;;;;;;;12.88;100.00;99682.20;1710594;83;21161;-79
2022/07/21 02:00:37;;;;;;;12.03;6.05;;;;;;;12.81;100.00;99672.58;1689766;83;21345;-80
2022/07/21 02:03:44;;;;;;;12.37;6.60;;;;;;;12.79;100.00;99673.30;1689017;85;21264;-80
2022/07/21 02:06:52;;;;;;;10.43;6.22;;;;;;;12.77;100.00;99674.88;1689423;85;21252;-80
2022/07/21 02:09:58;;;;;;;19.23;6.35;;;;;;;12.75;100.00;99674.26;1690573;83;21200;-79
2022/07/21 02:13:04;;;;;;;14.45;7.35;;;;;;;12.73;100.00;99669.48;1714977;83;21160;-80
2022/07/21 02:16:10;;;;;;;15.00;7.50;;;;;;;12.73;100.00;99665.89;1723653;82;21203;-79
2022/07/21 02:19:17;;;;;;;19.52;8.28;;;;;;;12.74;100.00;99663.47;1725055;83;21807;-80
2022/07/21 02:22:23;;;;;;;16.15;8.18;;;;;;;12.76;100.00;99664.13;1725183;83;21244;-79
2022/07/21 02:25:29;;;;;;;14.85;7.87;;;;;;;12.80;100.00;99659.92;1724731;82;21228;-80
2022/07/21 02:28:34;;;;;;;15.88;6.83;;;;;;;13.00;100.00;99664.92;1725840;83;21157;-80
2022/07/21 02:31:40;;;;;;;17.80;6.70;;;;;;;13.43;100.00;99667.34;1725921;82;21203;-80
2022/07/21 02:34:47;;;;;;;11.03;5.67;;;;;;;13.90;100.00;99672.29;1726084;80;21253;-79
2022/07/21 02:37:54;;;;;;;12.88;5.05;;;;;;;14.36;100.00;99669.13;1723879;83;21204;-79
2022/07/21 02:41:00;;;;;;;7.53;3.83;;;;;;;14.82;100.00;99670.36;1723818;82;21212;-79
2022/07/21 02:44:07;;;;;;;8.03;3.70;;;;;;;15.29;100.00;99670.90;1724467;83;21208;-79
2022/07/21 02:47:13;;;;;;;11.93;3.33;;;;;;;15.71;100.00;99671.25;1724340;83;21185;-79
2022/07/21 02:50:20;;;;;;;10.28;3.92;;;;;;;16.09;100.00;99677.48;1724166;82;21204;-79
2022/07/21 02:53:23;;;;;;;9.33;3.47;;;;;;;16.49;99.02;99678.42;1723838;83;21251;-80
2022/07/21 02:56:29;;;;;;;10.82;3.55;;;;;;;16.82;95.58;99678.58;1723656;82;21590;-80
2022/07/21 02:59:35;;;;;;;8.25;2.85;;;;;;;17.15;92.41;99683.66;1724552;82;21180;-80
2022/07/21 03:02:41;;;;;;;9.73;3.27;;;;;;;17.42;89.86;99675.81;1724433;83;21169;-80
2022/07/21 03:05:48;;;;;;;17.02;3.52;;;;;;;17.74;87.75;99682.48;1723530;82;21176;-79
2022/07/21 03:08:53;;;;;;;13.58;3.33;;;;;;;17.94;84.94;99683.52;1723378;83;21195;-80
2022/07/21 03:12:00;;;;;;;10.55;3.10;;;;;;;18.04;83.47;99682.37;1724576;83;21193;-79
2022/07/21 03:15:07;;;;;;;5.90;3.00;;;;;;;18.09;81.55;99678.34;1723136;82;21199;-79
2022/07/21 03:18:13;;;;;;;13.08;3.50;;;;;;;18.06;81.36;99683.80;1723149;83;21263;-80
2022/07/21 03:21:19;;;;;;;9.28;3.02;;;;;;;18.01;80.64;99685.06;1723524;82;21780;-78
2022/07/21 03:24:25;;;;;;;4.97;3.15;;;;;;;17.96;81.30;99680.79;1723082;82;21203;-79
2022/07/21 03:27:31;;;;;;;7.72;3.60;;;;;;;17.99;81.28;99676.17;1724491;83;21173;-79
2022/07/21 03:30:36;;;;;;;11.48;3.67;;;;;;;18.05;81.21;99680.73;1723909;82;21240;-79
2022/07/21 03:33:42;;;;;;;6.58;2.98;;;;;;;18.13;80.14;99677.62;1724706;83;21701;-80
2022/07/21 03:36:49;;;;;;;7.90;3.52;;;;;;;18.17;80.01;99684.06;1739720;82;21231;-79
2022/07/21 03:39:55;;;;;;;4.62;3.20;;;;;;;18.25;79.54;99681.74;1755650;80;21203;-79
2022/07/21 03:43:03;;;;;;;6.87;3.47;;;;;;;18.32;79.42;99683.86;1755839;82;21200;-80
2022/07/21 03:46:09;;;;;;;4.78;3.58;;;;;;;18.34;78.46;99682.22;1754881;80;21766;-80
2022/07/21 03:49:15;;;;;;;5.62;3.60;;;;;;;18.28;78.54;99679.05;1755805;82;21156;-80
2022/07/21 03:52:21;;;;;;;6.80;3.85;;;;;;;18.23;79.66;99678.94;1754304;82;21215;-80
2022/07/21 03:55:28;;;;;;;7.30;3.45;;;;;;;18.23;79.70;99676.17;1754376;80;21204;-80
2022/07/21 03:58:35;;;;;;;10.95;3.47;;;;;;;18.26;79.69;99674.31;1755763;82;21283;-80
2022/07/21 04:01:42;;;;;;;4.28;3.33;;;;;;;18.27;79.54;99673.22;1754515;80;21219;-80
2022/07/21 04:04:41;;;;;;;6.83;3.08;;;;;;;18.29;80.14;99671.04;1755619;80;21776;-79
2022/07/21 04:07:33;;;;;;;4.87;3.17;;;;;;;18.31;79.54;99681.34;1755515;82;21170;-80
2022/07/21 04:10:24;;;;;;;8.98;3.50;;;;;;;18.28;80.07;99688.73;1755244;80;21247;-79
2022/07/21 04:13:20;;;;;;;11.53;3.67;;;;;;;18.19;80.25;99692.95;1755853;82;21749;-79
2022/07/21 04:16:25;;;;;;;6.40;3.75;;;;;;;18.03;81.08;99688.45;1756007;80;21195;-79
2022/07/21 04:19:30;;;;;;;8.48;3.47;;;;;;;17.89;81.36;99696.68;1755842;80;21207;-80
2022/07/21 04:22:37;;;;;;;14.03;3.70;;;;;;;17.77;82.16;99693.88;1755745;82;21172;-80
2022/07/21 04:25:44;;;;;;;7.17;3.95;;;;;;;17.68;83.24;99693.05;1755009;80;21236;-80
2022/07/21 04:28:51;;;;;;;5.45;3.40;;;;;;;17.62;84.13;99695.69;1755771;82;21137;-80
2022/07/21 04:31:57;;;;;;;9.18;3.90;;;;;;;17.59;84.87;99692.55;1755836;82;21180;-79
2022/07/21 04:35:02;;;;;;;10.55;3.62;;;;;;;17.54;85.16;99689.11;1755641;80;21676;-80
2022/07/21 04:38:09;;;;;;;9.43;3.83;;;;;;;17.60;86.19;99677.67;1752709;82;21180;-80
2022/07/21 04:41:14;;;;;;;11.08;3.42;;;;;;;17.77;86.77;99681.44;1754393;80;21195;-80
2022/07/21 04:44:20;;;;;;;9.43;2.90;;;;;;;17.94;84.59;99683.52;1754336;82;21188;-80
2022/07/21 04:47:26;;;;;;;5.28;3.25;;;;;;;18.04;84.22;99687.36;1756002;82;21192;-80
2022/07/21 04:50:34;;;;;;;5.65;2.95;;;;;;;18.12;82.11;99677.32;1755961;80;21243;-80
2022/07/21 04:53:40;;;;;;;7.50;2.90;;;;;;;18.13;81.59;99677.62;1756004;82;21157;-80
2022/07/21 04:56:48;;;;;;;6.58;3.00;;;;;;;18.17;82.58;99677.98;1754420;80;21760;-80
2022/07/21 04:59:55;;;;;;;6.08;3.30;;;;;;;18.26;81.20;99667.39;1755701;80;21195;-80
2022/07/21 05:03:01;;;;;;;5.62;2.62;;;;;;;18.31;80.60;99660.58;1755858;82;21168;-80
2022/07/21 05:06:06;;;;;;;6.62;3.10;;;;;;;18.36;80.28;99664.84;1755915;80;21224;-80
2022/07/21 05:09:12;;;;;;;5.15;2.80;;;;;;;18.36;78.28;99669.00;1755817;82;21180;-80
2022/07/21 05:12:19;;;;;;;4.62;3.00;;;;;;;18.36;78.98;99671.22;1756004;82;21168;-79
2022/07/21 05:15:24;;;;;;;13.22;3.25;;;;;;;18.45;80.27;99673.08;1755327;80;21255;-79
2022/07/21 05:18:31;;;;;;;15.70;3.12;;;;;;;18.50;77.79;99675.95;1755877;82;21255;-80
2022/07/21 05:21:36;;;;;;;5.20;2.65;;;;;;;18.49;78.19;99679.82;1754625;80;21685;-81
2022/07/21 05:24:42;;;;;;;7.97;2.80;;;;;;;18.53;77.81;99680.98;1755671;80;21756;-81
2022/07/21 05:27:48;;;;;;;10.68;2.70;;;;;;;18.55;77.94;99676.06;1754749;82;21764;-80
2022/07/21 05:30:55;;;;;;;11.08;2.98;;;;;;;18.53;77.68;99679.60;1710381;82;21228;-80
2022/07/21 05:34:00;;;;;;;5.62;2.75;;;;;;;18.60;78.81;99678.11;1714829;82;21165;-80
2022/07/21 05:37:09;;;;;;;6.92;2.77;;;;;;;18.74;77.57;99676.78;1715780;83;21208;-79
2022/07/21 05:40:16;;;;;;;13.13;2.35;;;;;;;18.83;76.50;99680.02;1709368;82;21157;-80
2022/07/21 05:43:22;;;;;;;5.83;2.62;;;;;;;18.86;75.89;99673.95;1701026;84;21157;-81
2022/07/21 05:46:27;;;;;;;6.65;2.52;;;;;;;18.93;76.54;99673.28;1710792;84;21209;-80
2022/07/21 05:49:27;;;;;;;11.90;2.92;;;;;;;18.98;76.19;99673.93;1713223;82;21758;-80
2022/07/21 05:52:31;;;;;;;4.60;2.45;;;;;;;18.98;77.32;99672.00;1710625;84;21181;-81
2022/07/21 05:55:37;;;;;;;9.70;2.52;;;;;;;18.99;75.25;99668.13;1703786;84;21200;-81
2022/07/21 05:58:44;;;;;;;7.40;2.60;;;;;;;18.99;76.42;99674.22;1708428;83;21194;-80
2022/07/21 06:01:51;;;;;;;10.75;2.90;;;;;;;18.99;75.11;99672.29;1703924;84;21209;-81
2022/07/21 06:04:57;;;;;;;12.20;2.90;;;;;;;19.02;75.69;99656.56;1698845;82;21242;-80
2022/07/21 06:08:02;;;;;;;2.17;1.98;;;;;;;19.13;74.79;99661.75;1703968;84;21197;-81
2022/07/21 06:11:08;;;;;;;6.12;2.50;;;;;;;19.22;73.87;99662.20;1708198;82;21181;-81
2022/07/21 06:14:12;;;;;;;5.65;2.95;;;;;;;19.28;73.80;99672.28;1705479;84;21699;-82
2022/07/21 06:17:18;;;;;;;5.08;2.40;;;;;;;19.27;73.48;99656.74;1687510;84;21137;-81
2022/07/21 06:20:24;;;;;;;5.92;2.83;;;;;;;19.30;72.99;99654.88;1690787;83;21239;-81
2022/07/21 06:23:30;;;;;;;17.95;3.08;;;;;;;19.35;73.03;99658.57;1679224;84;21160;-81
2022/07/21 06:26:36;;;;;;;9.90;3.05;;;;;;;19.41;73.23;99659.50;1689599;83;21184;-82
2022/07/21 06:29:42;;;;;;;14.53;2.92;;;;;;;19.50;73.40;99663.55;1702427;82;21184;-81
2022/07/21 06:32:41;;;;;;;9.33;2.80;;;;;;;19.62;72.21;99661.58;1711642;83;21690;-82
2022/07/21 06:35:34;;;;;;;5.47;2.70;;;;;;;19.76;71.58;99672.32;1712511;82;21812;-80
2022/07/21 06:38:20;;;;;;;4.72;2.30;;;;;;;19.85;71.78;99668.88;1712890;83;21201;-82
2022/07/21 06:41:19;;;;;;;6.97;1.98;;;;;;;19.97;71.84;99684.06;1726664;81;21755;-81
2022/07/21 06:44:27;;;;;;;5.33;2.00;;;;;;;20.07;69.22;99675.05;1732500;80;21800;-79
2022/07/21 06:47:34;;;;;;;7.35;1.87;;;;;;;20.10;70.26;99681.50;1711753;83;21839;-79
2022/07/21 06:50:40;;;;;;;4.05;1.60;;;;;;;20.10;68.10;99671.23;1720050;82;21890;-80
2022/07/21 06:53:48;;;;;;;6.50;1.70;;;;;;;20.17;67.13;99675.20;1734998;82;21753;-81
2022/07/21 06:56:55;;;;;;;6.90;1.60;;;;;;;20.16;67.48;99667.43;1736466;82;21202;-79
2022/07/21 07:00:01;;;;;;;3.85;1.30;;;;;;;20.17;67.46;99671.88;1710620;82;21219;-80
2022/07/21 07:03:06;;;;;;;6.03;1.52;;;;;;;20.21;67.45;99670.83;1733491;82;21940;-80
2022/07/21 07:06:12;;;;;;;5.72;1.90;;;;;;;20.29;66.75;99671.79;1751588;80;21796;-81
2022/07/21 07:09:18;;;;;;;16.02;1.80;;;;;;;20.38;66.95;99675.81;1751803;82;21184;-80
2022/07/21 07:12:26;;;;;;;6.80;1.75;;;;;;;20.40;66.52;99674.16;1747632;82;21271;-81
2022/07/21 07:15:34;;;;;;;10.75;1.45;;;;;;;20.45;66.30;99678.95;1699145;83;21198;-81
2022/07/21 07:18:40;;;;;;;8.05;1.52;;;;;;;20.53;63.68;99666.04;1699070;84;21179;-81
2022/07/21 07:21:45;;;;;;;10.60;1.90;;;;;;;20.66;62.43;99671.23;1701147;83;21871;-83
2022/07/21 07:24:51;;;;;;;6.70;1.45;;;;;;;20.79;64.50;99655.53;1706604;83;21219;-82
2022/07/21 07:27:57;;;;;;;17.42;2.15;;;;;;;20.90;64.25;99663.46;1718223;83;21245;-81
2022/07/21 07:31:04;;;;;;;2.95;1.30;;;;;;;20.98;63.09;99661.59;1752354;80;21235;-81
2022/07/21 07:34:10;;;;;;;7.92;1.30;;;;;;;21.11;61.47;99653.40;1722984;83;21169;-82
2022/07/21 07:37:16;;;;;;;6.03;1.37;;;;;;;21.12;59.48;99659.24;1721638;83;21164;-80
2022/07/21 07:40:26;;;;;;;2.65;0.95;;;;;;;21.16;58.86;99656.23;1710134;82;21207;-80
2022/07/21 07:43:32;;;;;;;2.00;0.90;;;;;;;21.25;59.04;99653.27;1696662;84;21219;-81
2022/07/21 07:46:38;;;;;;;5.17;1.00;;;;;;;21.41;58.13;99648.20;1719629;83;21272;-82
2022/07/21 07:49:44;;;;;;;1.45;0.72;;;;;;;21.57;56.00;99644.16;1710274;82;21272;-81
2022/07/21 07:52:51;;;;;;;6.55;1.10;;;;;;;21.72;52.90;99652.63;1739901;82;21733;-82
2022/07/21 07:55:50;;;;;;;7.03;0.90;;;;;;;21.83;52.41;99668.86;1738955;82;21193;-82
2022/07/21 07:58:56;;;;;;;6.47;0.55;;;;;;;21.83;50.81;99668.33;1738779;82;21192;-81
2022/07/21 08:02:02;;;;;;;6.80;1.00;;;;;;;21.81;50.75;99649.65;1752315;82;21172;-81
2022/07/21 08:05:10;;;;;;;1.87;0.90;;;;;;;21.90;52.33;99657.80;1731495;80;21200;-81
2022/07/21 08:08:09;;;;;;;2.67;0.93;;;;;;;22.08;52.66;99646.80;1703599;83;21244;-81
2022/07/21 08:11:16;;;;;;;4.90;1.07;;;;;;;22.10;50.83;99648.74;1751190;82;21171;-81
2022/07/21 08:14:22;;;;;;;10.10;1.00;;;;;;;22.01;48.91;99646.73;1735431;82;21173;-81
2022/07/21 08:17:29;;;;;;;9.08;0.90;;;;;;;21.95;49.11;99658.39;1714147;84;21777;-81
2022/07/21 08:20:34;;;;;;;6.25;0.95;;;;;;;22.01;51.71;99641.16;1713720;83;21235;-82
2022/07/21 08:23:40;;;;;;;5.53;0.72;;;;;;;22.13;51.95;99646.86;1738061;80;21568;-81
2022/07/21 08:26:46;;;;;;;6.20;0.80;;;;;;;22.26;50.05;99639.15;1735655;82;21215;-81
2022/07/21 08:29:53;;;;;;;2.27;0.80;;;;;;;22.40;49.32;99652.88;1719189;82;21684;-82
2022/07/21 08:32:59;;;;;;;6.45;0.80;;;;;;;22.59;49.59;99639.33;1711622;83;21716;-82
2022/07/21 08:36:05;;;;;;;2.42;0.80;;;;;;;22.77;49.15;99648.58;1751458;80;21318;-81
2022/07/21 08:39:10;;;;;;;7.40;0.90;;;;;;;22.79;48.91;99645.53;1748123;80;21176;-80
2022/07/21 08:42:18;;;;;;;7.03;1.07;;;;;;;22.84;48.86;99648.34;1688064;83;21223;-80
2022/07/21 08:45:23;;;;;;;3.42;1.00;;;;;;;23.04;47.65;99642.02;1731224;81;21260;-80
2022/07/21 08:48:26;;;;;;;5.33;0.70;;;;;;;23.08;47.92;99638.41;1729474;83;21186;-80
2022/07/21 08:51:19;;;;;;;11.65;1.05;;;;;;;22.97;46.13;99636.71;1731082;81;21191;-80
2022/07/21 08:54:25;;;;;;;6.65;0.98;;;;;;;22.90;45.71;99624.97;1731220;81;21204;-80
2022/07/21 08:57:31;;;;;;;3.52;0.70;;;;;;;22.83;43.98;99638.31;1731217;83;21674;-80
2022/07/21 09:00:36;;;;;;;7.35;0.70;;;;;;;22.77;44.17;99637.98;1700328;83;21220;-80
2022/07/21 09:03:36;;;;;;;4.40;0.65;;;;;;;22.89;44.07;99627.48;1700329;84;22292;-81
2022/07/21 09:06:42;;;;;;;9.73;1.37;;;;;;;23.12;42.67;99634.52;1723404;83;21208;-82
2022/07/21 09:09:47;;;;;;;2.92;0.35;;;;;;;23.20;42.36;99639.56;1687852;82;21747;-82
2022/07/21 09:13:03;;;;;;;4.22;0.90;;;;;;;23.09;42.67;99623.34;1723651;81;21152;-81
2022/07/21 09:16:08;;;;;;;2.17;0.50;;;;;;;23.08;42.18;99626.41;1725132;81;21737;-82
2022/07/21 09:19:10;;;;;;;5.30;0.80;;;;;;;23.08;43.52;99626.41;1730657;83;21227;-81
2022/07/21 09:22:21;;;;;;;9.88;0.80;;;;;;;23.01;43.13;99625.82;1730567;81;21165;-81
2022/07/21 09:25:43;;;;;;;7.08;0.80;;;;;;;22.93;44.14;99612.71;1733464;81;21200;-82
2022/07/21 09:28:49;;;;;;;4.25;0.75;;;;;;;22.92;43.95;99610.21;1733125;83;21268;-81
2022/07/21 09:31:55;;;;;;;8.73;1.57;;;;;;;22.92;43.15;99611.60;1732208;83;21208;-81
2022/07/21 09:35:09;;;;;;;4.33;0.80;;;;;;;22.96;43.87;99605.77;1733283;83;21204;-81
2022/07/21 09:38:21;;;;;;;4.75;1.00;;;;;;;23.06;44.07;99619.73;1728346;83;21153;-81
2022/07/21 09:41:32;;;;;;;7.60;0.90;;;;;;;23.01;43.59;99612.75;1704080;83;21188;-81
2022/07/21 09:44:39;;;;;;;1.75;0.70;;;;;;;22.99;44.15;99619.14;1719979;81;21238;-81
2022/07/21 09:47:45;;;;;;;3.60;0.80;;;;;;;23.07;44.07;99615.82;1703231;83;21125;-81
2022/07/21 09:50:51;;;;;;;12.03;0.90;;;;;;;23.15;42.97;99595.77;1720300;82;21227;-82
2022/07/21 09:54:03;;;;;;;4.83;1.02;;;;;;;23.17;43.28;99611.66;1724456;83;21149;-81
2022/07/21 09:57:08;;;;;;;3.55;1.00;;;;;;;23.21;44.06;99600.23;1724128;83;21184;-80
2022/07/21 10:00:17;;;;;;;2.15;0.60;;;;;;;23.38;42.60;99607.48;1728759;82;21704;-81
2022/07/21 10:03:23;;;;;;;5.67;0.80;;;;;;;23.50;42.50;99601.09;1721088;81;21195;-81
2022/07/21 10:06:35;;;;;;;1.57;0.62;;;;;;;23.56;43.04;99601.92;1717501;82;21561;-82
2022/07/21 10:09:44;;;;;;;3.17;1.07;;;;;;;23.64;42.43;99612.00;1717123;82;21783;-82
2022/07/21 10:12:51;;;;;;;1.07;0.70;;;;;;;23.58;42.34;99608.91;1720251;83;21183;-81
2022/07/21 10:15:57;;;;;;;6.22;0.88;;;;;;;23.50;42.67;99609.45;1728971;81;21796;-81
2022/07/21 10:19:34;;;;;;;4.50;0.80;;;;;;;23.54;43.10;99597.19;1721863;83;21179;-80
2022/07/21 10:23:18;;;;;;;2.15;0.60;;;;;;;23.69;44.14;99605.58;1731976;83;21184;-82
2022/07/21 10:26:23;;;;;;;5.22;0.90;;;;;;;23.87;44.22;99583.23;1731872;81;21200;-81
2022/07/21 10:30:04;;;;;;;5.47;1.22;;;;;;;24.06;42.61;99583.48;1731871;82;21178;-81
2022/07/21 10:32:54;;;;;;;1.60;0.90;;;;;;;24.12;43.51;99591.55;1726024;81;21136;-81
2022/07/21 10:36:01;;;;;;;7.08;1.00;;;;;;;24.25;42.63;99581.75;1722725;81;21168;-81
2022/07/21 10:39:26;;;;;;;6.20;1.27;;;;;;;24.29;40.92;99571.68;1724202;81;21206;-81
2022/07/21 10:42:31;;;;;;;5.00;0.88;;;;;;;24.28;41.14;99569.15;1723693;81;21171;-80
2022/07/21 10:45:42;;;;;;;4.45;0.70;;;;;;;24.29;41.06;99586.22;1728186;81;21751;-81
2022/07/21 10:48:55;;;;;;;9.13;0.80;;;;;;;24.30;41.30;99587.32;1726251;81;21164;-82
2022/07/21 10:52:00;;;;;;;6.28;1.00;;;;;;;24.30;41.13;99583.69;1721861;81;21198;-81
2022/07/21 10:55:36;;;;;;;3.37;0.80;;;;;;;24.27;41.23;99592.62;1729522;81;21255;-81
2022/07/21 10:58:31;;;;;;;6.50;0.78;;;;;;;24.16;40.17;99577.86;1719772;82;21721;-81
2022/07/21 11:01:39;;;;;;;2.08;0.88;;;;;;;24.09;41.18;99585.69;1729046;81;21224;-80
2022/07/21 11:05:11;;;;;;;2.58;0.70;;;;;;;24.09;40.94;99585.69;1733835;81;21195;-81
2022/07/21 11:08:26;;;;;;;5.33;0.90;;;;;;;24.08;41.78;99582.63;1737402;82;21821;-80
2022/07/21 11:11:33;;;;;;;11.65;0.80;;;;;;;24.15;41.83;99575.63;1728227;81;21602;-81
2022/07/21 11:14:49;;;;;;;1.90;0.90;;;;;;;24.26;41.72;99576.99;1736046;81;21217;-81
2022/07/21 11:17:55;;;;;;;3.62;0.70;;;;;;;24.34;42.06;99575.02;1735606;82;21880;-81
2022/07/21 11:21:15;;;;;;;6.22;0.80;;;;;;;24.37;42.04;99574.46;1727897;81;21183;-81
2022/07/21 11:24:27;;;;;;;4.42;0.90;;;;;;;24.37;42.14;99570.27;1734716;82;21165;-82
2022/07/21 11:27:35;;;;;;;2.08;0.80;;;;;;;24.40;41.82;99583.69;1737510;82;21220;-81
2022/07/21 11:30:41;;;;;;;8.08;1.77;;;;;;;24.48;42.69;99567.73;1736009;81;21243;-81
2022/07/21 11:33:49;;;;;;;1.85;0.62;;;;;;;24.59;42.32;99567.95;1736247;82;21200;-81
2022/07/21 11:36:49;;;;;;;1.12;0.90;;;;;;;24.69;41.96;99572.65;1737624;82;21168;-81
2022/07/21 11:39:56;;;;;;;2.75;0.80;;;;;;;24.69;41.92;99558.11;1735112;81;21200;-81
2022/07/21 11:43:03;;;;;;;4.42;0.80;;;;;;;24.66;41.97;99562.89;1731773;82;21168;-81
2022/07/21 11:46:08;;;;;;;4.15;0.60;;;;;;;24.66;42.61;99555.91;1728740;81;21167;-82
2022/07/21 11:49:14;;;;;;;12.53;0.95;;;;;;;24.66;41.29;99563.45;1735252;82;21165;-82
2022/07/21 11:52:23;;;;;;;6.47;1.10;;;;;;;24.60;42.11;99564.02;1731559;82;21131;-80
2022/07/21 11:55:29;;;;;;;16.05;0.93;;;;;;;24.57;41.48;99556.23;1735195;81;21188;-81
2022/07/21 11:58:35;;;;;;;2.17;0.88;;;;;;;24.62;41.58;99553.41;1735282;82;21195;-81
2022/07/21 12:02:04;;;;;;;2.12;0.70;;;;;;;24.65;41.18;99561.20;1736043;81;21164;-81
2022/07/21 12:05:15;;;;;;;6.25;0.80;;;;;;;24.55;41.85;99561.25;1729314;82;21168;-81
2022/07/21 12:08:21;;;;;;;5.60;1.00;;;;;;;24.45;42.93;99556.55;1727621;82;21158;-81
2022/07/21 12:11:27;;;;;;;9.28;0.80;;;;;;;24.50;42.65;99556.25;1735368;81;21209;-81
2022/07/21 12:14:54;;;;;;;7.67;0.85;;;;;;;24.52;43.21;99550.66;1717702;81;21183;-81
2022/07/21 12:18:03;;;;;;;9.38;0.60;;;;;;;24.53;42.82;99553.73;1736955;82;21174;-80
2022/07/21 12:21:11;;;;;;;3.17;0.80;;;;;;;24.60;42.83;99543.05;1735842;81;21175;-81
2022/07/21 12:24:16;;;;;;;2.45;0.82;;;;;;;24.69;44.27;99551.11;1734873;83;21207;-81
2022/07/21 12:27:24;;;;;;;6.25;1.25;;;;;;;24.81;43.81;99550.78;1707098;84;21167;-81
2022/07/21 12:30:54;;;;;;;11.83;1.22;;;;;;;24.87;42.11;99541.80;1724939;81;21223;-81
2022/07/21 12:34:01;;;;;;;3.25;1.10;;;;;;;24.87;43.00;99543.20;1726494;82;21155;-80
2022/07/21 12:37:08;;;;;;;5.65;0.80;;;;;;;24.77;43.10;99550.25;1731161;82;21144;-80
2022/07/21 12:40:19;;;;;;;1.82;0.82;;;;;;;24.59;43.15;99534.40;1729663;81;21167;-80
2022/07/21 12:43:27;;;;;;;4.33;0.90;;;;;;;24.55;43.69;99534.69;1710545;82;21140;-81
2022/07/21 12:46:41;;;;;;;1.90;0.93;;;;;;;24.50;43.88;99534.72;1724345;81;21167;-80
2022/07/21 12:50:10;;;;;;;5.37;0.72;;;;;;;24.50;44.13;99540.88;1725327;82;21241;-80
2022/07/21 12:53:18;;;;;;;7.90;1.10;;;;;;;24.53;44.12;99534.16;1723533;82;21165;-80
2022/07/21 12:56:29;;;;;;;4.15;1.00;;;;;;;24.60;45.05;99541.66;1725781;82;21986;-80
2022/07/21 12:59:36;;;;;;;6.08;0.82;;;;;;;24.63;44.60;99547.25;1726102;81;21179;-81
2022/07/21 13:02:55;;;;;;;10.13;1.00;;;;;;;24.64;45.10;99537.16;1732115;83;22160;-82
2022/07/21 13:06:03;;;;;;;3.85;0.80;;;;;;;24.57;44.67;99533.86;1733771;81;21218;-81
2022/07/21 13:09:08;;;;;;;8.05;1.35;;;;;;;24.51;45.33;99539.19;1734688;83;21203;-81
2022/07/21 13:12:17;;;;;;;1.37;0.80;;;;;;;24.46;45.44;99536.41;1734140;83;21736;-81
2022/07/21 13:15:25;;;;;;;2.17;1.00;;;;;;;24.36;45.53;99540.62;1733171;81;21203;-81
2022/07/21 13:18:24;;;;;;;5.55;1.10;;;;;;;24.28;45.32;99537.02;1733763;83;21174;-82
2022/07/21 13:21:32;;;;;;;1.67;0.93;;;;;;;24.22;46.95;99540.39;1733395;81;21790;-81
2022/07/21 13:24:40;;;;;;;3.77;1.20;;;;;;;24.23;46.75;99536.50;1733658;81;21187;-81
2022/07/21 13:27:46;;;;;;;7.87;1.20;;;;;;;24.19;46.29;99546.58;1734485;83;21231;-80
2022/07/21 13:30:53;;;;;;;9.75;1.10;;;;;;;24.06;46.29;99536.83;1733344;81;21740;-80
2022/07/21 13:33:59;;;;;;;3.90;1.55;;;;;;;23.91;46.96;99533.52;1733791;83;21526;-81
2022/07/21 13:37:11;;;;;;;4.37;1.12;;;;;;;23.84;47.61;99504.20;1734741;83;21211;-81
2022/07/21 13:40:16;;;;;;;4.15;1.57;;;;;;;23.87;47.94;99539.95;1734427;81;21739;-81
2022/07/21 13:43:24;;;;;;;12.18;1.52;;;;;;;23.89;47.92;99533.52;1734708;83;21195;-81
2022/07/21 13:46:30;;;;;;;3.05;1.60;;;;;;;23.95;48.72;99519.83;1734824;81;21230;-81
2022/07/21 13:49:36;;;;;;;3.75;1.32;;;;;;;24.07;47.35;99523.70;1734681;81;21275;-81
2022/07/21 13:52:42;;;;;;;7.47;1.62;;;;;;;24.15;47.06;99528.14;1735063;83;21223;-81
2022/07/21 13:55:47;;;;;;;5.37;1.55;;;;;;;24.26;46.84;99530.33;1734825;81;21222;-81
2022/07/21 13:58:54;;;;;;;5.85;1.52;;;;;;;24.33;46.73;99535.63;1734500;83;21140;-81
2022/07/21 14:02:00;;;;;;;3.05;1.45;;;;;;;24.34;46.62;99528.34;1734760;83;21218;-81
2022/07/21 14:05:06;;;;;;;1.67;1.15;;;;;;;24.30;47.18;99524.45;1733266;81;21179;-81
2022/07/21 14:08:13;;;;;;;6.25;1.65;;;;;;;24.35;47.50;99536.16;1734677;83;21151;-81
2022/07/21 14:11:19;;;;;;;8.15;1.55;;;;;;;24.38;47.21;99539.83;1733671;81;21748;-81
2022/07/21 14:14:26;;;;;;;5.17;1.20;;;;;;;24.39;46.56;99535.34;1733192;81;21194;-80
2022/07/21 14:17:32;;;;;;;4.15;1.40;;;;;;;24.30;46.49;99538.98;1734658;83;21163;-81
2022/07/21 14:20:38;;;;;;;9.28;1.57;;;;;;;24.18;47.37;99527.58;1718098;82;21197;-81
2022/07/21 14:23:43;;;;;;;4.85;1.17;;;;;;;24.12;47.64;99529.27;1717729;83;21182;-81
2022/07/21 14:26:52;;;;;;;7.53;1.60;;;;;;;24.05;47.89;99532.37;1717879;83;21493;-81
2022/07/21 14:29:56;;;;;;;11.20;1.67;;;;;;;23.95;48.21;99536.59;1717502;82;21209;-82
2022/07/21 14:33:02;;;;;;;5.28;1.40;;;;;;;23.80;48.30;99538.00;1716461;83;21154;-81
2022/07/21 14:36:10;;;;;;;3.27;1.30;;;;;;;23.63;48.29;99534.94;1717007;82;21236;-81
2022/07/21 14:39:16;;;;;;;6.58;1.70;;;;;;;23.45;48.47;99537.73;1717438;83;21179;-82